createdAt,value
2022-08-24T00:00:53.610Z,98237.00
2022-08-24T00:03:31.775Z,98235.00
2022-08-24T00:06:15.225Z,98233.00
2022-08-24T00:08:52.853Z,98232.00
2022-08-24T00:11:28.384Z,98224.00
2022-08-24T00:14:04.239Z,98228.00
2022-08-24T00:16:39.497Z,98233.00
2022-08-24T00:19:14.933Z,98228.00
2022-08-24T00:21:51.466Z,98230.00
2022-08-24T00:24:27.348Z,98226.00
2022-08-24T00:27:02.315Z,98218.00
2022-08-24T00:29:37.192Z,98217.00
2022-08-24T00:32:12.259Z,98212.00
2022-08-24T00:34:58.775Z,98217.00
2022-08-24T00:37:35.836Z,98227.00
2022-08-24T00:40:28.703Z,98221.00
2022-08-24T00:43:08.348Z,98221.00
2022-08-24T00:45:52.227Z,98216.00
2022-08-24T00:48:32.330Z,98215.00
2022-08-24T00:51:18.690Z,98218.00
2022-08-24T00:54:04.327Z,98228.00
2022-08-24T00:56:47.005Z,98214.00
2022-08-24T00:59:29.388Z,98221.00
2022-08-24T01:02:15.281Z,98223.00
2022-08-24T01:05:06.455Z,98222.00
2022-08-24T01:07:41.935Z,98217.00
2022-08-24T01:10:25.107Z,98220.00
2022-08-24T01:13:05.843Z,98224.00
2022-08-24T01:15:46.922Z,98222.00
2022-08-24T01:18:42.938Z,98223.00
2022-08-24T01:21:38.032Z,98216.00
2022-08-24T01:24:14.728Z,98219.00
2022-08-24T01:26:51.293Z,98228.00
2022-08-24T01:29:31.402Z,98229.00
2022-08-24T01:32:07.606Z,98230.00
2022-08-24T01:34:43.403Z,98230.00
2022-08-24T01:37:20.129Z,98226.00
2022-08-24T01:39:57.605Z,98231.00
2022-08-24T01:42:36.119Z,98229.00
2022-08-24T01:45:11.053Z,98233.00
2022-08-24T01:47:46.398Z,98239.00
2022-08-24T01:50:22.062Z,98230.00
2022-08-24T01:53:05.368Z,98233.00
2022-08-24T01:55:42.449Z,98236.00
2022-08-24T01:58:17.782Z,98238.00
2022-08-24T02:00:52.815Z,98239.00
2022-08-24T02:03:30.515Z,98242.00
2022-08-24T02:06:06.913Z,98235.00
2022-08-24T02:08:42.083Z,98240.00
2022-08-24T02:11:17.024Z,98241.00
2022-08-24T02:13:52.653Z,98246.00
2022-08-24T02:16:27.647Z,98237.00
2022-08-24T02:19:02.756Z,98246.00
2022-08-24T02:21:37.866Z,98247.00
2022-08-24T02:24:14.707Z,98246.00
2022-08-24T02:26:49.816Z,98261.00
2022-08-24T02:29:25.254Z,98244.00
2022-08-24T02:32:00.276Z,98250.00
2022-08-24T02:34:35.432Z,98252.00
2022-08-24T02:37:10.336Z,98251.00
2022-08-24T02:39:45.908Z,98251.00
2022-08-24T02:42:24.901Z,98243.00
2022-08-24T02:45:01.891Z,98247.00
2022-08-24T02:47:38.765Z,98251.00
2022-08-24T02:50:18.044Z,98242.00
2022-08-24T02:52:54.257Z,98235.00
2022-08-24T02:55:29.976Z,98238.00
2022-08-24T02:58:05.881Z,98236.00
2022-08-24T03:00:42.548Z,98241.00
2022-08-24T03:03:17.801Z,98235.00
2022-08-24T03:05:52.871Z,98238.00
2022-08-24T03:08:32.367Z,98241.00
2022-08-24T03:11:11.428Z,98229.00
2022-08-24T03:13:46.701Z,98231.00
2022-08-24T03:16:21.725Z,98231.00
2022-08-24T03:18:57.873Z,98226.00
2022-08-24T03:21:35.003Z,98231.00
2022-08-24T03:24:10.309Z,98237.00
2022-08-24T03:26:45.435Z,98230.00
2022-08-24T03:29:21.955Z,98234.00
2022-08-24T03:31:59.553Z,98233.00
2022-08-24T03:34:35.497Z,98235.00
2022-08-24T03:37:10.695Z,98231.00
2022-08-24T03:39:47.636Z,98231.00
2022-08-24T03:42:22.699Z,98223.00
2022-08-24T03:44:57.747Z,98231.00
2022-08-24T03:47:34.239Z,98223.00
2022-08-24T03:50:12.088Z,98228.00
2022-08-24T03:52:48.558Z,98231.00
2022-08-24T03:55:23.646Z,98228.00
2022-08-24T03:57:59.889Z,98229.00
2022-08-24T04:00:35.517Z,98239.00
2022-08-24T04:03:14.054Z,98240.00
2022-08-24T04:05:49.083Z,98229.00
2022-08-24T04:08:24.418Z,98228.00
2022-08-24T04:10:59.654Z,98230.00
2022-08-24T04:13:34.677Z,98236.00
2022-08-24T04:16:13.577Z,98238.00
2022-08-24T04:18:50.109Z,98233.00
2022-08-24T04:21:29.516Z,98235.00
2022-08-24T04:24:07.590Z,98237.00
2022-08-24T04:26:45.429Z,98238.00
2022-08-24T04:29:23.094Z,98239.00
2022-08-24T04:32:00.464Z,98246.00
2022-08-24T04:34:35.944Z,98248.00
2022-08-24T04:37:12.011Z,98249.00
2022-08-24T04:39:47.415Z,98249.00
2022-08-24T04:42:31.649Z,98254.00
2022-08-24T04:45:09.783Z,98256.00
2022-08-24T04:47:45.632Z,98263.00
2022-08-24T04:50:21.603Z,98265.00
2022-08-24T04:52:59.600Z,98257.00
2022-08-24T04:55:47.089Z,98262.00
2022-08-24T04:58:22.186Z,98268.00
2022-08-24T05:00:57.464Z,98268.00
2022-08-24T05:03:33.291Z,98265.00
2022-08-24T05:06:13.372Z,98273.00
2022-08-24T05:08:48.870Z,98278.00
2022-08-24T05:11:24.838Z,98282.00
2022-08-24T05:14:00.246Z,98274.00
2022-08-24T05:16:37.667Z,98274.00
2022-08-24T05:19:12.745Z,98272.00
2022-08-24T05:21:47.845Z,98280.00
2022-08-24T05:24:23.212Z,98280.00
2022-08-24T05:27:00.373Z,98278.00
2022-08-24T05:29:36.388Z,98272.00
2022-08-24T05:32:12.029Z,98280.00
2022-08-24T05:34:47.845Z,98274.00
2022-08-24T05:37:22.953Z,98272.00
2022-08-24T05:40:18.481Z,98278.00
2022-08-24T05:42:58.094Z,98283.00
2022-08-24T05:45:33.397Z,98282.00
2022-08-24T05:48:08.627Z,98287.00
2022-08-24T05:51:05.847Z,98285.00
2022-08-24T05:53:43.920Z,98288.00
2022-08-24T05:56:21.326Z,98288.00
2022-08-24T05:58:56.463Z,98295.00
2022-08-24T06:01:33.386Z,98294.00
2022-08-24T06:04:09.036Z,98295.00
2022-08-24T06:06:44.234Z,98297.00
2022-08-24T06:09:24.056Z,98305.00
2022-08-24T06:12:00.494Z,98304.00
2022-08-24T06:14:36.366Z,98302.00
2022-08-24T06:17:12.589Z,98299.00
2022-08-24T06:19:47.931Z,98301.00
2022-08-24T06:22:22.943Z,98298.00
2022-08-24T06:25:18.968Z,98304.00
2022-08-24T06:27:53.999Z,98302.00
2022-08-24T06:30:30.732Z,98296.00
2022-08-24T06:33:13.360Z,98309.00
2022-08-24T06:35:54.230Z,98295.00
2022-08-24T06:38:31.969Z,98300.00
2022-08-24T06:41:08.531Z,98296.00
2022-08-24T06:43:44.553Z,98296.00
2022-08-24T06:46:24.492Z,98296.00
2022-08-24T06:49:00.946Z,98304.00
2022-08-24T06:51:35.951Z,98301.00
2022-08-24T06:54:11.553Z,98302.00
2022-08-24T06:56:47.253Z,98305.00
2022-08-24T06:59:22.712Z,98313.00
2022-08-24T07:01:57.898Z,98314.00
2022-08-24T07:04:35.072Z,98314.00
2022-08-24T07:07:38.910Z,98317.00
2022-08-24T07:10:14.499Z,98316.00
2022-08-24T07:12:49.692Z,98322.00
2022-08-24T07:15:26.503Z,98321.00
2022-08-24T07:18:28.948Z,98318.00
2022-08-24T07:21:06.045Z,98317.00
2022-08-24T07:23:50.294Z,98323.00
2022-08-24T07:26:28.871Z,98320.00
2022-08-24T07:29:43.593Z,98329.00
2022-08-24T07:32:12.279Z,98330.00
2022-08-24T07:34:50.186Z,98327.00
2022-08-24T07:37:33.432Z,98331.00
2022-08-24T07:40:18.097Z,98337.00
2022-08-24T07:42:56.967Z,98331.00
2022-08-24T07:45:33.706Z,98337.00
2022-08-24T07:48:12.768Z,98340.00
2022-08-24T07:50:53.243Z,98330.00
2022-08-24T07:53:37.862Z,98337.00
2022-08-24T07:56:23.638Z,98336.00
2022-08-24T07:59:01.085Z,98340.00
2022-08-24T08:01:37.015Z,98337.00
2022-08-24T08:04:13.780Z,98343.00
2022-08-24T08:06:49.322Z,98344.00
2022-08-24T08:09:24.569Z,98337.00
2022-08-24T08:11:59.886Z,98336.00
2022-08-24T08:14:35.974Z,98339.00
2022-08-24T08:17:13.320Z,98345.00
2022-08-24T08:19:48.677Z,98335.00
2022-08-24T08:22:42.572Z,98339.00
2022-08-24T08:25:38.443Z,98335.00
2022-08-24T08:28:25.731Z,98329.00
2022-08-24T08:31:03.581Z,98325.00
2022-08-24T08:33:39.566Z,98329.00
2022-08-24T08:36:15.949Z,98328.00
2022-08-24T08:38:55.684Z,98325.00
2022-08-24T08:42:14.246Z,98333.00
2022-08-24T08:45:22.884Z,98330.00
2022-08-24T08:48:47.353Z,98319.00
2022-08-24T08:51:45.734Z,98325.00
2022-08-24T08:54:30.827Z,98321.00
2022-08-24T08:57:30.162Z,98321.00
2022-08-24T09:00:19.551Z,98317.00
2022-08-24T09:03:27.074Z,98313.00
2022-08-24T09:06:50.413Z,98329.00
2022-08-24T09:09:35.018Z,98318.00
2022-08-24T09:12:29.264Z,98317.00
2022-08-24T09:15:29.388Z,98322.00
2022-08-24T09:18:20.345Z,98323.00
2022-08-24T09:21:17.948Z,98320.00
2022-08-24T09:24:17.791Z,98318.00
2022-08-24T09:27:22.318Z,98319.00
2022-08-24T09:30:10.975Z,98317.00
2022-08-24T09:33:30.444Z,98311.00
2022-08-24T09:36:19.314Z,98313.00
2022-08-24T09:39:11.735Z,98307.00
2022-08-24T09:42:02.600Z,98302.00
2022-08-24T09:45:02.103Z,98302.00
2022-08-24T09:48:15.717Z,98296.00
2022-08-24T09:51:51.276Z,98304.00
2022-08-24T09:54:34.743Z,98296.00
2022-08-24T09:57:59.423Z,98297.00
2022-08-24T10:01:13.176Z,98302.00
2022-08-24T10:04:21.356Z,98299.00
2022-08-24T10:07:15.196Z,98297.00
2022-08-24T10:10:10.658Z,98295.00
2022-08-24T10:13:03.471Z,98287.00
2022-08-24T10:16:21.593Z,98302.00
2022-08-24T10:19:29.139Z,98295.00
2022-08-24T10:22:34.975Z,98286.00
2022-08-24T10:25:39.269Z,98284.00
2022-08-24T10:28:39.530Z,98291.00
2022-08-24T10:31:38.451Z,98269.00
2022-08-24T10:34:54.504Z,98267.00
2022-08-24T10:38:35.228Z,98263.00
2022-08-24T10:41:55.012Z,98269.00
2022-08-24T10:44:58.679Z,98263.00
2022-08-24T10:47:37.042Z,98262.00
2022-08-24T10:50:21.057Z,98255.00
2022-08-24T10:53:14.907Z,98258.00
2022-08-24T10:56:16.036Z,98261.00
2022-08-24T10:58:58.724Z,98253.00
2022-08-24T11:01:39.357Z,98258.00
2022-08-24T11:04:29.190Z,98260.00
2022-08-24T11:07:17.715Z,98254.00
2022-08-24T11:10:01.686Z,98252.00
2022-08-24T11:12:43.500Z,98259.00
2022-08-24T11:15:18.559Z,98266.00
2022-08-24T11:18:00.972Z,98260.00
2022-08-24T11:20:42.705Z,98260.00
2022-08-24T11:23:29.645Z,98261.00
2022-08-24T11:26:26.845Z,98264.00
2022-08-24T11:29:05.229Z,98254.00
2022-08-24T11:31:43.769Z,98251.00
2022-08-24T11:34:33.133Z,98250.00
2022-08-24T11:37:15.897Z,98248.00
2022-08-24T11:39:51.149Z,98246.00
2022-08-24T11:42:44.903Z,98250.00
2022-08-24T11:46:09.912Z,98246.00
2022-08-24T11:49:15.882Z,98236.00
2022-08-24T11:52:22.502Z,98237.00
2022-08-24T11:55:46.835Z,98241.00
2022-08-24T11:58:45.697Z,98243.00
2022-08-24T12:01:44.744Z,98244.00
2022-08-24T12:04:53.092Z,98240.00
2022-08-24T12:08:04.192Z,98245.00
2022-08-24T12:11:18.971Z,98239.00
2022-08-24T12:14:45.760Z,98244.00
2022-08-24T12:17:33.855Z,98240.00
2022-08-24T12:20:32.182Z,98232.00
2022-08-24T12:23:35.346Z,98235.00
2022-08-24T12:26:40.011Z,98237.00
2022-08-24T12:29:31.204Z,98242.00
2022-08-24T12:32:34.464Z,98230.00
2022-08-24T12:35:18.660Z,98234.00
2022-08-24T12:38:08.400Z,98224.00
2022-08-24T12:41:14.727Z,98229.00
2022-08-24T12:44:01.419Z,98229.00
2022-08-24T12:46:37.589Z,98234.00
2022-08-24T12:49:29.033Z,98233.00
2022-08-24T12:52:33.861Z,98233.00
2022-08-24T12:55:52.596Z,98230.00
2022-08-24T12:59:04.143Z,98232.00
2022-08-24T13:01:46.815Z,98223.00
2022-08-24T13:04:44.779Z,98218.00
2022-08-24T13:07:19.739Z,98226.00
2022-08-24T13:10:00.772Z,98218.00
2022-08-24T13:12:45.108Z,98227.00
2022-08-24T13:15:22.875Z,98224.00
2022-08-24T13:18:20.871Z,98224.00
2022-08-24T13:20:56.577Z,98223.00
2022-08-24T13:23:31.711Z,98218.00
2022-08-24T13:26:23.780Z,98214.00
2022-08-24T13:29:01.000Z,98216.00
2022-08-24T13:31:43.467Z,98216.00
2022-08-24T13:34:19.207Z,98212.00
2022-08-24T13:37:22.285Z,98200.00
2022-08-24T13:40:26.493Z,98206.00
2022-08-24T13:43:29.073Z,98203.00
2022-08-24T13:46:38.310Z,98199.00
2022-08-24T13:49:16.393Z,98200.00
2022-08-24T13:52:27.125Z,98201.00
2022-08-24T13:55:30.469Z,98196.00
2022-08-24T13:58:19.622Z,98196.00
2022-08-24T14:01:31.145Z,98198.00
2022-08-24T14:04:24.727Z,98200.00
2022-08-24T14:07:09.948Z,98197.00
2022-08-24T14:09:58.170Z,98201.00
2022-08-24T14:12:33.351Z,98193.00
2022-08-24T14:15:25.607Z,98197.00
2022-08-24T14:18:27.898Z,98187.00
2022-08-24T14:21:11.106Z,98183.00
2022-08-24T14:24:06.429Z,98184.00
2022-08-24T14:26:44.286Z,98184.00
2022-08-24T14:29:19.290Z,98180.00
2022-08-24T14:32:11.621Z,98173.00
2022-08-24T14:35:40.557Z,98177.00
2022-08-24T14:38:24.512Z,98170.00
2022-08-24T14:41:44.885Z,98170.00
2022-08-24T14:45:14.970Z,98173.00
2022-08-24T14:48:08.517Z,98176.00
2022-08-24T14:51:13.511Z,98175.00
2022-08-24T14:54:08.928Z,98173.00
2022-08-24T14:56:53.489Z,98171.00
2022-08-24T14:59:55.108Z,98166.00
2022-08-24T15:02:55.424Z,98162.00
2022-08-24T15:05:41.832Z,98166.00
2022-08-24T15:08:42.814Z,98160.00
2022-08-24T15:11:26.523Z,98158.00
2022-08-24T15:14:10.788Z,98152.00
2022-08-24T15:17:07.791Z,98157.00
2022-08-24T15:20:07.922Z,98158.00
2022-08-24T15:22:59.025Z,98165.00
2022-08-24T15:25:53.511Z,98156.00
2022-08-24T15:28:34.239Z,98153.00
2022-08-24T15:31:11.912Z,98158.00
2022-08-24T15:34:03.882Z,98150.00
2022-08-24T15:36:38.922Z,98151.00
2022-08-24T15:39:27.902Z,98156.00
2022-08-24T15:42:21.459Z,98152.00
2022-08-24T15:45:04.660Z,98153.00
2022-08-24T15:47:48.531Z,98163.00
2022-08-24T15:50:41.476Z,98158.00
2022-08-24T15:53:38.949Z,98159.00
2022-08-24T15:56:35.656Z,98154.00
2022-08-24T15:59:45.193Z,98155.00
2022-08-24T16:02:30.734Z,98161.00
2022-08-24T16:05:37.433Z,98167.00
2022-08-24T16:08:14.544Z,98167.00
2022-08-24T16:10:57.019Z,98163.00
2022-08-24T16:13:33.380Z,98162.00
2022-08-24T16:16:14.442Z,98165.00
2022-08-24T16:18:57.929Z,98166.00
2022-08-24T16:21:58.372Z,98168.00
2022-08-24T16:24:37.667Z,98167.00
2022-08-24T16:27:17.134Z,98166.00
2022-08-24T16:29:55.771Z,98168.00
2022-08-24T16:32:53.346Z,98160.00
2022-08-24T16:35:29.425Z,98164.00
2022-08-24T16:38:04.608Z,98159.00
2022-08-24T16:40:40.626Z,98167.00
2022-08-24T16:43:16.359Z,98167.00
2022-08-24T16:45:51.328Z,98173.00
2022-08-24T16:48:27.872Z,98156.00
2022-08-24T16:51:03.200Z,98168.00
2022-08-24T16:53:38.296Z,98168.00
2022-08-24T16:56:16.514Z,98171.00
2022-08-24T16:58:52.197Z,98170.00
2022-08-24T17:01:27.489Z,98167.00
2022-08-24T17:04:02.660Z,98172.00
2022-08-24T17:06:37.731Z,98165.00
2022-08-24T17:09:12.743Z,98169.00
2022-08-24T17:11:48.194Z,98170.00
2022-08-24T17:14:23.357Z,98177.00
2022-08-24T17:16:59.271Z,98177.00
2022-08-24T17:19:34.310Z,98175.00
2022-08-24T17:22:14.138Z,98176.00
2022-08-24T17:24:52.522Z,98173.00
2022-08-24T17:27:32.785Z,98174.00
2022-08-24T17:30:09.383Z,98180.00
2022-08-24T17:32:44.866Z,98178.00
2022-08-24T17:35:21.439Z,98182.00
2022-08-24T17:37:57.063Z,98182.00
2022-08-24T17:40:33.890Z,98185.00
2022-08-24T17:43:09.000Z,98187.00
2022-08-24T17:45:44.290Z,98186.00
2022-08-24T17:48:25.789Z,98194.00
2022-08-24T17:51:00.785Z,98191.00
2022-08-24T17:53:36.400Z,98196.00
2022-08-24T17:56:15.682Z,98200.00
2022-08-24T17:59:10.020Z,98199.00
2022-08-24T18:01:45.470Z,98200.00
2022-08-24T18:04:25.600Z,98202.00
2022-08-24T18:07:06.292Z,98206.00
2022-08-24T18:09:55.672Z,98199.00
2022-08-24T18:12:30.736Z,98201.00
2022-08-24T18:15:06.824Z,98209.00
2022-08-24T18:17:46.410Z,98204.00
2022-08-24T18:20:28.190Z,98209.00
2022-08-24T18:23:03.680Z,98215.00
2022-08-24T18:25:47.699Z,98211.00
2022-08-24T18:28:23.905Z,98219.00
2022-08-24T18:30:59.061Z,98210.00
2022-08-24T18:33:34.401Z,98209.00
2022-08-24T18:36:10.452Z,98214.00
2022-08-24T18:38:45.550Z,98213.00
2022-08-24T18:41:21.193Z,98213.00
2022-08-24T18:43:56.251Z,98224.00
2022-08-24T18:46:31.894Z,98223.00
2022-08-24T18:49:07.552Z,98226.00
2022-08-24T18:51:43.665Z,98224.00
2022-08-24T18:54:35.880Z,98225.00
2022-08-24T18:57:11.573Z,98230.00
2022-08-24T18:59:47.086Z,98231.00
2022-08-24T19:02:35.966Z,98225.00
2022-08-24T19:05:22.715Z,98225.00
2022-08-24T19:07:57.675Z,98233.00
2022-08-24T19:10:37.172Z,98242.00
2022-08-24T19:13:15.774Z,98233.00
2022-08-24T19:15:51.124Z,98240.00
2022-08-24T19:18:26.294Z,98247.00
2022-08-24T19:21:01.287Z,98239.00
2022-08-24T19:23:38.966Z,98239.00
2022-08-24T19:26:13.952Z,98242.00
2022-08-24T19:28:48.875Z,98237.00
2022-08-24T19:31:26.611Z,98241.00
2022-08-24T19:34:03.488Z,98237.00
2022-08-24T19:36:38.751Z,98243.00
2022-08-24T19:39:13.855Z,98233.00
2022-08-24T19:41:51.926Z,98242.00
2022-08-24T19:44:51.903Z,98240.00
2022-08-24T19:47:27.072Z,98242.00
2022-08-24T19:50:05.526Z,98244.00
2022-08-24T19:52:41.361Z,98239.00
2022-08-24T19:55:16.334Z,98243.00
2022-08-24T19:58:09.972Z,98249.00
2022-08-24T20:00:55.167Z,98249.00
2022-08-24T20:03:30.283Z,98245.00
2022-08-24T20:06:05.795Z,98248.00
2022-08-24T20:08:40.939Z,98250.00
2022-08-24T20:11:17.531Z,98249.00
2022-08-24T20:13:52.807Z,98248.00
2022-08-24T20:16:35.632Z,98245.00
2022-08-24T20:19:11.862Z,98252.00
2022-08-24T20:21:46.839Z,98247.00
2022-08-24T20:24:21.921Z,98246.00
2022-08-24T20:26:58.358Z,98255.00
2022-08-24T20:29:33.307Z,98251.00
2022-08-24T20:32:08.273Z,98258.00
2022-08-24T20:34:44.918Z,98257.00
2022-08-24T20:37:27.680Z,98255.00
2022-08-24T20:40:04.859Z,98252.00
2022-08-24T20:42:41.427Z,98255.00
2022-08-24T20:45:16.376Z,98263.00
2022-08-24T20:47:53.298Z,98258.00
2022-08-24T20:50:30.837Z,98256.00
2022-08-24T20:53:06.218Z,98253.00
2022-08-24T20:55:42.036Z,98247.00
2022-08-24T20:58:21.755Z,98248.00
2022-08-24T21:00:56.705Z,98246.00
2022-08-24T21:03:32.393Z,98241.00
2022-08-24T21:06:09.746Z,98245.00
2022-08-24T21:08:48.566Z,98253.00
2022-08-24T21:11:23.559Z,98240.00
2022-08-24T21:13:59.005Z,98243.00
2022-08-24T21:16:40.212Z,98252.00
2022-08-24T21:19:17.462Z,98246.00
2022-08-24T21:21:52.517Z,98251.00
2022-08-24T21:24:27.577Z,98251.00
2022-08-24T21:27:02.664Z,98247.00
2022-08-24T21:29:38.993Z,98252.00
2022-08-24T21:32:32.521Z,98250.00
2022-08-24T21:35:07.991Z,98247.00
2022-08-24T21:37:42.941Z,98243.00
2022-08-24T21:40:18.567Z,98246.00
2022-08-24T21:42:53.645Z,98246.00
2022-08-24T21:45:28.867Z,98245.00
2022-08-24T21:48:03.777Z,98250.00
2022-08-24T21:50:38.713Z,98249.00
2022-08-24T21:53:13.586Z,98255.00
2022-08-24T21:55:49.556Z,98252.00
2022-08-24T21:58:25.477Z,98249.00
2022-08-24T22:01:00.998Z,98242.00
2022-08-24T22:03:40.296Z,98250.00
2022-08-24T22:06:15.569Z,98248.00
2022-08-24T22:08:50.684Z,98247.00
2022-08-24T22:11:25.722Z,98241.00
2022-08-24T22:14:03.397Z,98248.00
2022-08-24T22:16:38.758Z,98241.00
2022-08-24T22:19:14.482Z,98233.00
2022-08-24T22:21:49.371Z,98245.00
2022-08-24T22:24:24.402Z,98238.00
2022-08-24T22:26:59.524Z,98234.00
2022-08-24T22:29:34.570Z,98233.00
2022-08-24T22:32:09.647Z,98235.00
2022-08-24T22:34:44.640Z,98231.00
2022-08-24T22:37:19.529Z,98225.00
2022-08-24T22:39:54.584Z,98227.00
2022-08-24T22:42:29.532Z,98229.00
2022-08-24T22:45:07.516Z,98230.00
2022-08-24T22:47:42.455Z,98228.00
2022-08-24T22:50:17.437Z,98230.00
2022-08-24T22:52:54.127Z,98234.00
2022-08-24T22:55:32.422Z,98231.00
2022-08-24T22:58:07.509Z,98222.00
2022-08-24T23:00:42.396Z,98218.00
2022-08-24T23:03:17.282Z,98219.00
2022-08-24T23:05:52.177Z,98217.00
2022-08-24T23:08:27.075Z,98216.00
2022-08-24T23:11:01.939Z,98212.00
2022-08-24T23:13:39.677Z,98216.00
2022-08-24T23:16:14.930Z,98207.00
2022-08-24T23:19:08.478Z,98212.00
2022-08-24T23:21:45.122Z,98210.00
2022-08-24T23:24:20.790Z,98209.00
2022-08-24T23:26:55.722Z,98208.00
2022-08-24T23:29:31.597Z,98207.00
2022-08-24T23:32:07.358Z,98205.00
2022-08-24T23:34:42.940Z,98202.00
2022-08-24T23:37:18.875Z,98208.00
2022-08-24T23:39:53.772Z,98204.00
2022-08-24T23:42:28.689Z,98202.00
2022-08-24T23:45:03.854Z,98205.00
2022-08-24T23:47:42.673Z,98206.00
2022-08-24T23:50:18.533Z,98197.00
2022-08-24T23:52:53.490Z,98195.00
2022-08-24T23:55:28.607Z,98190.00
2022-08-24T23:58:04.123Z,98200.00
